Time;durP1;ratioP1;P1;durP2;ratioP2;P2;SDS_P1;SDS_P2;PMS_P1;PMS_P2;Temp;Humidity;BMP_temperature;BMP_pressure;BME280_temperature;BME280_humidity;BME280_pressure;Samples;Min_cycle;Max_cycle;Signal;HPM_P1;HPM_P2
2023/03/25 00:01:47;;;;;;;;;1.25;1.00;;;;;10.53;67.28;99969.41;5011816;28;10198;-68
2023/03/25 00:04:16;;;;;;;;;2.00;1.00;;;;;10.50;68.03;99962.63;5011483;28;10064;-67
2023/03/25 00:06:43;;;;;;;;;0.75;0.75;;;;;10.53;68.30;99986.41;5011843;28;10295;-67
2023/03/25 00:09:09;;;;;;;;;2.00;2.00;;;;;10.52;69.48;99979.34;5011873;28;10109;-67
2023/03/25 00:11:35;;;;;;;;;1.00;1.00;;;;;10.46;70.91;99982.91;5010821;28;10249;-67
2023/03/25 00:14:03;;;;;;;;;3.00;2.50;;;;;10.39;71.33;99979.44;5010789;28;10912;-67
2023/03/25 00:16:29;;;;;;;;;6.00;2.00;;;;;10.41;71.68;99966.56;5011595;28;10282;-66
2023/03/25 00:18:58;;;;;;;;;1.00;1.00;;;;;10.44;71.89;99976.91;5011350;28;10221;-68
2023/03/25 00:21:25;;;;;;;;;7.00;5.00;;;;;10.37;72.29;99976.09;5009650;28;10872;-67
2023/03/25 00:23:51;;;;;;;;;1.00;1.00;;;;;10.30;72.65;99978.84;5003468;28;10130;-67
2023/03/25 00:26:18;;;;;;;;;1.75;1.00;;;;;10.21;72.81;99971.19;5010139;28;10030;-67
2023/03/25 00:28:44;;;;;;;;;1.50;1.50;;;;;10.11;72.64;99977.03;4993719;28;10235;-68
2023/03/25 00:31:13;;;;;;;;;1.75;1.75;;;;;10.20;72.81;99969.53;5000872;28;10228;-68
2023/03/25 00:33:40;;;;;;;;;2.00;1.50;;;;;10.19;72.26;99967.91;5010036;28;10287;-67
2023/03/25 00:36:08;;;;;;;;;2.25;2.00;;;;;10.24;71.88;99966.22;5010501;28;10388;-67
2023/03/25 00:38:36;;;;;;;;;1.00;1.00;;;;;10.16;71.27;99974.50;5009873;28;11136;-68
2023/03/25 00:41:16;;;;;;;;;0.25;0.00;;;;;10.18;71.65;99968.94;5006650;28;10293;-68
2023/03/25 00:43:44;;;;;;;;;3.25;2.00;;;;;10.14;71.28;99963.97;4993812;28;10425;-68
2023/03/25 00:46:11;;;;;;;;;2.25;2.00;;;;;10.18;71.83;99975.16;4993584;28;11049;-67
2023/03/25 00:48:37;;;;;;;;;3.00;1.00;;;;;10.16;71.19;99955.69;4994502;28;10401;-67
2023/03/25 00:51:08;;;;;;;;;3.00;2.00;;;;;10.16;71.18;99959.19;5009067;28;10243;-66
2023/03/25 00:53:36;;;;;;;;;2.00;2.00;;;;;10.16;70.95;99953.81;5010848;28;10985;-68
2023/03/25 00:56:03;;;;;;;;;2.00;1.75;;;;;10.13;71.05;99948.91;5009574;28;10988;-69
2023/03/25 00:58:30;;;;;;;;;2.50;1.50;;;;;10.20;70.43;99961.47;5009089;28;10234;-67
2023/03/25 01:00:56;;;;;;;;;1.75;0.75;;;;;10.25;71.11;99961.69;5008387;28;11121;-68
2023/03/25 01:03:30;;;;;;;;;3.50;2.00;;;;;10.28;70.52;99962.09;5008830;28;10168;-68
2023/03/25 01:05:56;;;;;;;;;1.50;1.00;;;;;10.14;70.57;99966.66;4992184;28;10356;-68
2023/03/25 01:08:24;;;;;;;;;2.00;1.00;;;;;10.12;70.82;99951.78;4992783;28;10331;-68
2023/03/25 01:10:53;;;;;;;;;2.50;1.25;;;;;10.13;70.49;99956.13;4991969;28;10257;-67
2023/03/25 01:13:21;;;;;;;;;3.25;2.00;;;;;10.18;70.53;99959.00;5009910;28;10399;-66
2023/03/25 01:15:49;;;;;;;;;1.50;1.00;;;;;10.22;70.22;99965.59;5008469;28;10133;-67
2023/03/25 01:18:16;;;;;;;;;2.00;1.50;;;;;10.23;70.51;99969.13;4992531;28;11098;-66
2023/03/25 01:20:43;;;;;;;;;2.75;1.00;;;;;10.25;70.05;99959.84;4992698;28;10415;-66
2023/03/25 01:23:09;;;;;;;;;1.25;1.00;;;;;10.23;70.13;99955.66;5010887;28;10923;-67
2023/03/25 01:25:36;;;;;;;;;1.00;1.00;;;;;10.22;70.38;99945.97;5008308;28;10115;-67
2023/03/25 01:28:03;;;;;;;;;2.50;1.00;;;;;10.16;70.57;99967.28;5010144;28;10260;-67
2023/03/25 01:30:30;;;;;;;;;1.75;1.00;;;;;10.18;70.79;99956.31;5009428;28;12700;-65
2023/03/25 01:32:56;;;;;;;;;5.00;1.00;;;;;10.15;70.66;99951.34;5010553;28;10325;-66
2023/03/25 01:35:23;;;;;;;;;1.50;1.00;;;;;10.10;70.91;99956.56;5009544;28;10407;-69
2023/03/25 01:37:53;;;;;;;;;2.00;1.75;;;;;10.10;71.04;99962.75;4992283;28;10324;-69
2023/03/25 01:40:22;;;;;;;;;2.75;1.75;;;;;10.13;71.66;99953.44;4990646;28;10274;-68
2023/03/25 01:42:49;;;;;;;;;2.75;1.00;;;;;10.10;71.46;99953.88;5009755;28;10161;-68
2023/03/25 01:45:23;;;;;;;;;2.00;2.00;;;;;10.09;72.14;99952.22;4991250;28;10287;-68
2023/03/25 01:47:57;;;;;;;;;4.25;1.50;;;;;10.11;72.19;99952.81;5009276;28;10330;-68
2023/03/25 01:50:27;;;;;;;;;3.75;1.25;;;;;10.07;72.24;99949.72;4992286;28;10291;-69
2023/03/25 01:52:57;;;;;;;;;4.00;2.00;;;;;10.12;72.42;99968.72;4991862;28;10343;-68
2023/03/25 01:55:26;;;;;;;;;3.25;3.25;;;;;10.08;72.86;99950.56;5008970;28;11005;-69
2023/03/25 01:57:58;;;;;;;;;1.00;1.00;;;;;10.11;72.51;99939.38;5008311;28;10335;-69
2023/03/25 02:00:26;;;;;;;;;4.00;3.00;;;;;10.11;72.58;99942.88;4990905;28;10115;-69
2023/03/25 02:02:57;;;;;;;;;2.00;2.00;;;;;10.12;72.71;99947.22;5009550;28;10310;-69
2023/03/25 02:05:36;;;;;;;;;2.50;2.00;;;;;10.11;72.25;99944.75;5009416;28;10364;-66
2023/03/25 02:08:04;;;;;;;;;1.00;0.00;;;;;10.16;72.68;99950.31;5008832;28;10308;-66
2023/03/25 02:10:32;;;;;;;;;3.00;1.00;;;;;10.21;72.53;99942.44;5008266;28;10202;-67
2023/03/25 02:13:00;;;;;;;;;4.00;4.00;;;;;10.14;72.69;99950.53;5009860;28;10166;-67
2023/03/25 02:15:34;;;;;;;;;6.00;2.00;;;;;10.09;72.33;99947.66;4968079;28;10326;-67
2023/03/25 02:18:21;;;;;;;;;6.00;0.75;;;;;10.11;72.31;99945.56;4995144;28;10278;-66
2023/03/25 02:21:22;;;;;;;;;0.75;0.75;;;;;10.13;72.55;99934.63;5010112;28;10395;-66
2023/03/25 02:24:15;;;;;;;;;5.25;2.25;;;;;10.12;72.86;99935.66;5007663;28;10337;-67
2023/03/25 02:27:12;;;;;;;;;2.00;1.00;;;;;10.06;72.75;99937.34;5008087;28;10425;-67
2023/03/25 02:29:41;;;;;;;;;1.00;1.00;;;;;10.07;72.59;99930.91;5008319;28;10351;-67
2023/03/25 02:32:17;;;;;;;;;5.75;4.50;;;;;10.01;72.84;99933.66;5008161;28;10206;-66
2023/03/25 02:34:50;;;;;;;;;4.00;2.00;;;;;9.99;72.82;99941.09;4991744;28;10346;-67
2023/03/25 02:37:52;;;;;;;;;1.00;1.00;;;;;9.96;73.29;99936.13;4991674;28;10306;-66
2023/03/25 02:40:36;;;;;;;;;6.25;4.00;;;;;9.94;72.85;99941.72;4970640;28;10196;-67
2023/03/25 02:43:11;;;;;;;;;3.75;2.00;;;;;9.91;73.16;99929.53;4991048;28;10292;-67
2023/03/25 02:45:48;;;;;;;;;4.75;2.00;;;;;9.99;73.59;99924.94;5004675;28;10467;-67
2023/03/25 02:48:21;;;;;;;;;2.75;2.75;;;;;9.98;73.47;99928.69;5008085;28;10236;-67
2023/03/25 02:50:55;;;;;;;;;4.75;1.00;;;;;10.02;72.99;99925.34;4991414;28;10203;-67
2023/03/25 02:53:29;;;;;;;;;2.75;2.25;;;;;10.00;72.51;99923.91;4984031;28;10412;-67
2023/03/25 02:56:01;;;;;;;;;4.50;2.50;;;;;10.00;72.92;99930.09;4974449;28;10372;-67
2023/03/25 02:58:29;;;;;;;;;2.75;1.75;;;;;10.05;72.70;99922.25;4991794;28;10274;-66
2023/03/25 03:00:57;;;;;;;;;2.25;1.75;;;;;10.01;72.36;99912.94;4984028;28;10161;-66
2023/03/25 03:03:26;;;;;;;;;0.00;0.00;;;;;10.05;72.48;99918.72;5009028;28;10238;-67
2023/03/25 03:05:59;;;;;;;;;4.25;2.00;;;;;10.08;73.15;99918.28;4990884;28;10107;-67
2023/03/25 03:08:55;;;;;;;;;8.00;1.25;;;;;10.02;72.51;99917.28;5007865;28;11141;-67
2023/03/25 03:11:43;;;;;;;;;5.25;4.00;;;;;10.00;72.56;99915.84;5010558;28;10426;-66
2023/03/25 03:14:28;;;;;;;;;3.50;3.50;;;;;9.96;72.84;99906.53;5010831;28;10357;-67
2023/03/25 03:17:13;;;;;;;;;5.00;3.50;;;;;10.02;72.79;99909.22;5011500;28;10509;-67
2023/03/25 03:19:45;;;;;;;;;8.50;2.50;;;;;10.00;72.63;99889.78;5012646;28;11083;-68
2023/03/25 03:22:40;;;;;;;;;3.25;1.00;;;;;10.00;72.52;99899.72;5012182;28;10386;-66
2023/03/25 03:25:25;;;;;;;;;2.00;2.00;;;;;10.04;72.59;99904.44;5012818;28;10237;-66
2023/03/25 03:28:03;;;;;;;;;3.00;1.00;;;;;10.05;72.48;99911.50;5010622;28;11044;-65
2023/03/25 03:30:45;;;;;;;;;10.25;6.00;;;;;10.04;72.26;99914.38;5012768;28;10254;-65
2023/03/25 03:33:24;;;;;;;;;4.25;3.00;;;;;10.04;72.83;99900.94;5012328;28;10345;-65
2023/03/25 03:36:14;;;;;;;;;3.25;2.00;;;;;10.10;72.69;99910.84;5011871;28;11165;-66
2023/03/25 03:38:47;;;;;;;;;4.25;3.00;;;;;10.08;72.58;99904.84;5005533;28;10915;-66
2023/03/25 03:41:20;;;;;;;;;5.50;2.75;;;;;10.01;72.61;99904.06;5012266;28;10367;-65
2023/03/25 03:43:56;;;;;;;;;5.75;3.00;;;;;9.98;73.24;99902.63;5012353;28;10347;-67
2023/03/25 03:46:36;;;;;;;;;2.50;2.50;;;;;10.02;72.84;99897.66;5011381;28;10221;-66
2023/03/25 03:49:08;;;;;;;;;4.75;1.25;;;;;10.00;73.26;99900.53;5011820;28;10228;-66
2023/03/25 03:51:40;;;;;;;;;4.75;3.00;;;;;9.91;73.38;99897.25;5011939;28;10272;-66
2023/03/25 03:54:23;;;;;;;;;5.00;5.00;;;;;9.95;73.63;99907.59;5010746;28;10340;-65
2023/03/25 03:57:00;;;;;;;;;7.75;2.50;;;;;9.97;73.60;99900.97;5010731;28;10395;-67
2023/03/25 03:59:40;;;;;;;;;6.00;3.25;;;;;9.92;73.51;99906.16;4990557;28;10551;-67
2023/03/25 04:02:37;;;;;;;;;5.50;2.75;;;;;9.85;73.90;99903.50;5011531;28;10381;-66
2023/03/25 04:05:07;;;;;;;;;8.00;5.25;;;;;9.79;73.78;99908.88;5004710;28;10339;-67
2023/03/25 04:07:55;;;;;;;;;5.00;1.00;;;;;9.80;73.10;99905.16;5008868;28;10351;-67
2023/03/25 04:10:44;;;;;;;;;1.75;1.75;;;;;9.77;73.42;99903.75;5007543;28;10242;-67
2023/03/25 04:13:15;;;;;;;;;4.50;2.50;;;;;9.77;73.34;99901.06;5008689;28;10455;-66
2023/03/25 04:15:42;;;;;;;;;6.50;3.00;;;;;9.81;72.94;99909.53;5011640;28;10362;-66
2023/03/25 04:18:08;;;;;;;;;2.50;2.50;;;;;9.81;73.05;99906.84;5010360;28;10479;-65
2023/03/25 04:20:35;;;;;;;;;1.50;1.00;;;;;9.78;72.92;99897.31;5010440;28;10258;-66
2023/03/25 04:23:03;;;;;;;;;4.00;2.00;;;;;9.77;72.88;99905.59;5009335;28;10216;-69
2023/03/25 04:25:34;;;;;;;;;3.00;1.00;;;;;9.82;73.06;99898.53;5010778;28;10364;-67
2023/03/25 04:28:00;;;;;;;;;6.00;4.00;;;;;9.83;72.83;99910.13;5011090;28;10233;-67
2023/03/25 04:30:28;;;;;;;;;4.50;4.00;;;;;9.83;72.99;99921.69;5011357;28;11030;-67
2023/03/25 04:32:54;;;;;;;;;5.00;2.00;;;;;9.71;73.05;99907.25;5010444;28;10287;-67
2023/03/25 04:35:21;;;;;;;;;4.25;1.00;;;;;9.81;73.62;99910.34;5009902;28;10271;-67
2023/03/25 04:37:53;;;;;;;;;1.00;1.00;;;;;9.87;73.34;99911.34;5008884;28;10237;-67
2023/03/25 04:40:19;;;;;;;;;4.25;2.75;;;;;9.91;73.03;99920.63;5010417;28;10183;-66
2023/03/25 04:42:46;;;;;;;;;1.75;1.75;;;;;9.90;73.27;99914.44;5010637;28;10311;-66
2023/03/25 04:45:15;;;;;;;;;2.25;1.00;;;;;9.86;72.96;99909.69;5009902;28;10323;-67
2023/03/25 04:47:46;;;;;;;;;1.00;1.00;;;;;9.84;73.25;99909.91;5010645;28;10361;-67
2023/03/25 04:50:22;;;;;;;;;2.00;2.00;;;;;9.86;73.30;99907.84;5009213;28;10229;-67
2023/03/25 04:52:49;;;;;;;;;2.00;1.75;;;;;9.79;72.49;99907.03;5010085;28;10447;-67
2023/03/25 04:55:19;;;;;;;;;4.50;2.50;;;;;9.80;72.86;99921.28;5010680;28;10317;-66
2023/03/25 04:57:47;;;;;;;;;1.25;1.25;;;;;9.79;72.89;99898.13;5010446;28;11013;-65
2023/03/25 05:00:16;;;;;;;;;2.00;2.00;;;;;9.78;72.19;99896.50;5008992;28;10247;-66
2023/03/25 05:02:47;;;;;;;;;5.00;1.50;;;;;9.75;72.18;99900.41;5010129;28;11089;-66
2023/03/25 05:05:19;;;;;;;;;4.00;2.50;;;;;9.77;72.73;99909.13;5010525;28;10251;-66
2023/03/25 05:07:48;;;;;;;;;1.00;1.00;;;;;9.74;72.51;99903.34;5009970;28;10250;-67
2023/03/25 05:10:16;;;;;;;;;0.25;0.25;;;;;9.74;72.70;99922.16;5006939;28;10302;-67
2023/03/25 05:12:42;;;;;;;;;4.75;3.00;;;;;9.70;72.19;99916.38;5010573;28;10390;-66
2023/03/25 05:15:10;;;;;;;;;1.00;1.00;;;;;9.64;71.71;99914.50;5008176;28;10400;-67
2023/03/25 05:17:37;;;;;;;;;2.50;2.50;;;;;9.60;72.44;99922.19;5010284;28;10457;-67
2023/03/25 05:20:07;;;;;;;;;4.00;4.00;;;;;9.56;72.31;99933.53;5010365;28;10398;-67
2023/03/25 05:22:36;;;;;;;;;4.50;1.25;;;;;9.54;72.29;99924.88;5008090;28;10417;-67
2023/03/25 05:25:08;;;;;;;;;2.25;2.00;;;;;9.55;71.62;99930.03;5003309;28;10395;-67
2023/03/25 05:27:35;;;;;;;;;2.50;1.25;;;;;9.51;71.45;99927.97;5009078;28;10654;-65
2023/03/25 05:30:02;;;;;;;;;1.75;1.75;;;;;9.41;71.88;99931.94;4976441;28;10500;-67
2023/03/25 05:32:32;;;;;;;;;4.25;1.25;;;;;9.46;71.82;99936.66;5010048;28;10647;-65
2023/03/25 05:34:59;;;;;;;;;2.00;1.50;;;;;9.45;71.27;99929.66;5009431;28;10413;-67
2023/03/25 05:37:26;;;;;;;;;4.00;3.50;;;;;9.45;71.84;99935.03;4990576;28;10314;-66
2023/03/25 05:39:52;;;;;;;;;6.00;2.00;;;;;9.47;71.42;99932.13;5009249;28;10561;-67
2023/03/25 05:42:22;;;;;;;;;5.00;2.50;;;;;9.49;71.22;99930.06;5009438;28;10405;-66
2023/03/25 05:44:50;;;;;;;;;0.25;0.25;;;;;9.51;71.68;99933.34;5009507;28;10479;-66
2023/03/25 05:47:20;;;;;;;;;2.00;2.00;;;;;9.50;71.32;99945.13;5009932;28;10378;-65
2023/03/25 05:49:51;;;;;;;;;4.75;1.00;;;;;9.47;71.13;99948.22;5007673;28;10322;-67
2023/03/25 05:52:19;;;;;;;;;1.75;0.50;;;;;9.48;71.26;99939.13;5009437;28;10421;-67
2023/03/25 05:54:49;;;;;;;;;2.00;2.00;;;;;9.45;71.20;99942.25;5009568;28;11084;-65
2023/03/25 05:57:15;;;;;;;;;2.00;1.25;;;;;9.46;71.19;99947.41;4989898;28;10213;-66
2023/03/25 05:59:42;;;;;;;;;1.00;1.00;;;;;9.40;70.96;99946.41;4998499;28;11166;-66
2023/03/25 06:02:14;;;;;;;;;3.00;2.00;;;;;9.44;72.08;99954.00;4990607;28;10419;-66
2023/03/25 06:04:41;;;;;;;;;2.00;1.00;;;;;9.44;71.52;99959.38;5009509;28;11102;-67
2023/03/25 06:07:12;;;;;;;;;3.00;2.00;;;;;9.46;71.49;99950.09;5007726;28;10408;-66
2023/03/25 06:09:47;;;;;;;;;1.00;0.50;;;;;9.40;71.83;99961.69;5007922;28;11046;-67
2023/03/25 06:12:16;;;;;;;;;1.75;1.25;;;;;9.36;72.80;99961.28;5009515;28;10362;-66
2023/03/25 06:14:45;;;;;;;;;1.00;0.00;;;;;9.32;73.14;99968.09;5009242;28;10349;-67
2023/03/25 06:17:21;;;;;;;;;1.00;0.00;;;;;9.29;73.22;99962.31;4992267;28;10186;-67
2023/03/25 06:19:48;;;;;;;;;0.25;0.00;;;;;9.27;74.21;99965.19;5009175;28;10206;-66
2023/03/25 06:22:15;;;;;;;;;6.00;4.00;;;;;9.18;74.13;99961.06;5009254;28;10322;-66
2023/03/25 06:24:42;;;;;;;;;2.50;1.00;;;;;9.13;75.05;99955.50;5009347;28;10599;-67
2023/03/25 06:27:14;;;;;;;;;5.00;5.00;;;;;9.14;74.86;99954.47;5007659;28;10330;-66
2023/03/25 06:29:41;;;;;;;;;2.00;2.00;;;;;9.21;74.80;99962.53;5009799;28;11263;-66
2023/03/25 06:32:10;;;;;;;;;3.50;3.00;;;;;9.18;75.15;99955.69;5010045;28;10504;-67
2023/03/25 06:34:38;;;;;;;;;0.75;0.75;;;;;9.17;74.87;99970.16;5009627;28;10489;-67
2023/03/25 06:37:05;;;;;;;;;5.25;2.50;;;;;9.10;74.89;99959.41;5007576;28;10554;-65
2023/03/25 06:39:32;;;;;;;;;4.00;2.00;;;;;9.19;74.90;99968.09;5008285;28;10460;-67
2023/03/25 06:42:04;;;;;;;;;2.50;1.00;;;;;9.25;74.51;99961.91;4992098;28;11116;-67
2023/03/25 06:44:44;;;;;;;;;1.50;1.50;;;;;9.26;74.41;99962.72;4992227;28;10323;-67
2023/03/25 06:47:40;;;;;;;;;2.50;1.00;;;;;9.27;74.15;99967.88;4999995;28;10854;-67
2023/03/25 06:50:07;;;;;;;;;2.00;1.25;;;;;9.29;74.06;99970.38;5013576;28;10256;-67
2023/03/25 06:52:34;;;;;;;;;6.00;3.50;;;;;9.23;73.82;99963.94;5011120;28;10345;-67
2023/03/25 06:55:01;;;;;;;;;2.00;1.00;;;;;9.25;73.37;99967.28;5011324;28;10291;-66
2023/03/25 06:57:28;;;;;;;;;1.75;1.00;;;;;9.31;73.34;99976.34;5012228;28;11042;-66
2023/03/25 06:59:54;;;;;;;;;2.75;1.50;;;;;9.33;73.31;99964.38;5013129;28;10136;-65
2023/03/25 07:02:21;;;;;;;;;2.00;2.00;;;;;9.39;72.82;99981.50;5012859;28;10515;-66
2023/03/25 07:04:47;;;;;;;;;3.25;1.00;;;;;9.37;72.83;99972.84;5012904;28;10331;-66
2023/03/25 07:07:14;;;;;;;;;5.75;2.00;;;;;9.40;72.75;99981.31;5012789;28;11032;-66
2023/03/25 07:09:40;;;;;;;;;2.00;2.00;;;;;9.36;72.56;99981.94;5010721;28;10483;-66
2023/03/25 07:12:07;;;;;;;;;3.50;1.00;;;;;9.41;71.78;99982.13;5006784;28;10220;-66
2023/03/25 07:14:35;;;;;;;;;2.00;0.50;;;;;9.44;72.54;99992.47;5012143;28;10313;-65
2023/03/25 07:17:01;;;;;;;;;2.00;1.00;;;;;9.39;71.79;99982.31;5012706;28;10636;-66
2023/03/25 07:19:27;;;;;;;;;4.75;1.00;;;;;9.43;72.39;99981.91;5012868;28;10351;-66
2023/03/25 07:21:54;;;;;;;;;3.50;2.00;;;;;9.47;71.84;99983.16;5011778;28;10378;-66
2023/03/25 07:24:20;;;;;;;;;2.00;1.00;;;;;9.41;72.04;99984.81;5011286;28;11151;-66
2023/03/25 07:26:47;;;;;;;;;1.25;1.25;;;;;9.37;72.16;99981.72;5011906;28;10303;-66
2023/03/25 07:29:15;;;;;;;;;1.00;1.00;;;;;9.34;72.27;99995.56;4990594;28;10322;-66
2023/03/25 07:31:41;;;;;;;;;1.00;1.00;;;;;9.39;71.84;99981.50;5011093;28;10193;-66
2023/03/25 07:34:07;;;;;;;;;2.00;2.00;;;;;9.42;72.29;99986.47;5012303;28;10393;-66
2023/03/25 07:36:34;;;;;;;;;3.25;1.75;;;;;9.38;72.29;99987.91;4993487;28;10328;-67
2023/03/25 07:39:00;;;;;;;;;4.75;2.50;;;;;9.46;71.79;99992.25;5011734;28;10353;-66
2023/03/25 07:41:27;;;;;;;;;2.00;2.00;;;;;9.58;71.85;99987.91;5012400;28;10359;-65
2023/03/25 07:44:09;;;;;;;;;5.00;1.75;;;;;9.66;71.83;99995.75;4994615;28;10527;-65
2023/03/25 07:46:36;;;;;;;;;1.75;1.00;;;;;9.63;71.49;99988.09;5011247;28;10550;-66
2023/03/25 07:49:03;;;;;;;;;3.50;3.50;;;;;9.64;71.05;99995.97;5011569;28;10338;-65
2023/03/25 07:51:31;;;;;;;;;0.75;0.50;;;;;9.63;70.85;99993.47;5012664;28;10414;-65
2023/03/25 07:53:58;;;;;;;;;1.75;1.75;;;;;9.59;70.79;100009.19;5012499;28;10215;-66
2023/03/25 07:56:32;;;;;;;;;4.00;2.00;;;;;9.71;71.36;99995.13;5011888;28;10436;-65
2023/03/25 07:58:59;;;;;;;;;4.50;2.50;;;;;9.69;70.97;99995.34;5012618;28;10266;-65
2023/03/25 08:01:25;;;;;;;;;2.75;1.00;;;;;9.63;71.29;100005.03;5012229;28;10318;-66
2023/03/25 08:03:52;;;;;;;;;5.00;2.00;;;;;9.57;71.87;99999.69;5012157;28;10353;-65
2023/03/25 08:06:18;;;;;;;;;1.00;0.25;;;;;9.56;72.42;99996.19;5011563;28;10325;-65
2023/03/25 08:08:45;;;;;;;;;4.00;2.25;;;;;9.57;72.06;99994.31;5011973;28;10225;-65
2023/03/25 08:11:11;;;;;;;;;4.00;1.50;;;;;9.48;72.39;100003.59;5011817;28;11114;-66
2023/03/25 08:13:38;;;;;;;;;2.00;1.00;;;;;9.41;72.66;100007.13;5011955;28;10187;-65
2023/03/25 08:16:12;;;;;;;;;1.00;1.00;;;;;9.46;72.57;100009.19;4993907;28;10298;-65
2023/03/25 08:18:39;;;;;;;;;5.75;1.25;;;;;9.44;71.91;100000.53;5000380;28;10226;-65
2023/03/25 08:21:06;;;;;;;;;4.00;2.00;;;;;9.49;72.29;100011.47;5011991;28;10248;-66
2023/03/25 08:23:35;;;;;;;;;1.50;1.50;;;;;9.47;71.39;100010.84;5011390;28;10174;-66
2023/03/25 08:26:04;;;;;;;;;1.00;1.00;;;;;9.50;71.47;100021.19;5011835;28;10357;-66
2023/03/25 08:28:30;;;;;;;;;3.75;1.50;;;;;9.57;71.37;100023.88;5011544;28;10166;-66
2023/03/25 08:30:57;;;;;;;;;4.50;3.00;;;;;9.51;71.06;100013.94;5011945;28;10299;-65
2023/03/25 08:33:33;;;;;;;;;3.25;3.25;;;;;9.57;71.44;100022.00;5011732;28;10350;-66
2023/03/25 08:36:00;;;;;;;;;2.25;0.50;;;;;9.64;71.99;100024.66;5011264;28;10232;-66
2023/03/25 08:38:30;;;;;;;;;1.00;1.00;;;;;9.64;71.47;100022.00;4994082;28;10217;-64
2023/03/25 08:41:00;;;;;;;;;1.00;1.00;;;;;9.60;72.21;100023.44;4992174;28;10121;-64
2023/03/25 08:43:26;;;;;;;;;1.25;1.25;;;;;9.56;72.39;100019.50;5010495;28;11024;-66
2023/03/25 08:45:52;;;;;;;;;9.25;2.50;;;;;9.61;71.92;100025.13;5011070;28;10233;-66
2023/03/25 08:48:20;;;;;;;;;3.00;1.50;;;;;9.69;71.46;100038.34;5011146;28;10399;-65
2023/03/25 08:50:46;;;;;;;;;4.75;2.00;;;;;9.73;71.22;100028.00;5011548;28;10312;-66
2023/03/25 08:53:12;;;;;;;;;2.00;2.00;;;;;9.71;71.77;100036.25;5011435;28;10304;-66
2023/03/25 08:55:39;;;;;;;;;2.25;0.25;;;;;9.76;71.44;100027.56;5010931;28;10318;-66
2023/03/25 08:58:07;;;;;;;;;2.50;2.50;;;;;9.72;71.94;100031.69;4993811;28;10250;-65
2023/03/25 09:00:36;;;;;;;;;2.75;1.75;;;;;9.76;71.73;100027.56;5011570;28;10254;-66
2023/03/25 09:03:04;;;;;;;;;2.75;1.75;;;;;9.82;71.53;100041.00;5010581;28;10353;-67
2023/03/25 09:05:30;;;;;;;;;6.00;2.00;;;;;9.83;71.29;100034.59;5011366;28;10235;-65
2023/03/25 09:07:57;;;;;;;;;1.00;1.00;;;;;9.97;72.63;100027.34;5010527;28;10237;-66
2023/03/25 09:10:23;;;;;;;;;1.50;1.00;;;;;9.94;70.86;100032.31;5010897;28;10212;-66
2023/03/25 09:12:50;;;;;;;;;6.50;0.25;;;;;9.95;70.96;100037.47;5011242;28;9996;-65
2023/03/25 09:15:17;;;;;;;;;3.75;1.00;;;;;10.03;70.46;100039.09;5011052;28;10085;-66
2023/03/25 09:17:43;;;;;;;;;2.75;1.00;;;;;10.03;70.55;100036.41;5011074;28;10096;-66
2023/03/25 09:20:11;;;;;;;;;1.00;1.00;;;;;10.12;70.11;100048.59;5010069;28;10131;-65
2023/03/25 09:22:39;;;;;;;;;5.50;0.75;;;;;10.16;69.80;100039.06;5010710;28;10092;-65
2023/03/25 09:25:06;;;;;;;;;3.50;1.00;;;;;10.25;69.58;100042.38;5010733;28;10111;-67
2023/03/25 09:27:34;;;;;;;;;3.50;1.75;;;;;10.26;69.58;100055.63;4993152;28;10096;-66
2023/03/25 09:30:00;;;;;;;;;2.25;1.00;;;;;10.22;69.43;100045.47;5010930;28;10154;-66
2023/03/25 09:32:27;;;;;;;;;4.25;2.00;;;;;10.23;69.81;100055.19;5010589;28;10038;-66
2023/03/25 09:34:53;;;;;;;;;3.00;1.50;;;;;10.35;69.49;100045.47;4992697;28;10097;-66
2023/03/25 09:37:20;;;;;;;;;4.75;2.00;;;;;10.23;68.90;100036.38;5010410;28;10179;-66
2023/03/25 09:39:46;;;;;;;;;2.00;2.00;;;;;10.14;69.43;100065.34;5010784;28;10166;-66
2023/03/25 09:42:46;;;;;;;;;2.75;2.00;;;;;10.27;69.17;100067.22;5010494;28;10117;-68
2023/03/25 09:45:19;;;;;;;;;4.75;1.75;;;;;10.29;68.73;100060.59;5009831;28;10238;-67
2023/03/25 09:47:55;;;;;;;;;3.75;2.00;;;;;10.28;68.86;100060.78;5004287;28;10032;-68
2023/03/25 09:50:24;;;;;;;;;5.00;4.50;;;;;10.36;69.13;100056.00;5010446;28;10036;-67
2023/03/25 09:53:03;;;;;;;;;1.00;1.00;;;;;10.35;68.63;100061.59;4992886;28;10123;-67
2023/03/25 09:55:35;;;;;;;;;3.00;1.50;;;;;10.25;68.88;100056.69;5009985;28;9973;-68
2023/03/25 09:58:21;;;;;;;;;3.75;2.00;;;;;10.29;69.22;100065.97;4992215;28;10034;-66
2023/03/25 10:00:59;;;;;;;;;7.00;1.00;;;;;10.42;69.22;100069.66;4990991;28;10188;-67
2023/03/25 10:03:43;;;;;;;;;1.25;1.25;;;;;10.51;68.72;100071.88;5005302;28;10106;-68
2023/03/25 10:06:19;;;;;;;;;6.00;2.00;;;;;10.62;68.57;100070.41;4990562;28;10093;-67
2023/03/25 10:09:04;;;;;;;;;3.75;2.00;;;;;10.72;67.92;100062.69;4990478;28;10096;-67
2023/03/25 10:11:46;;;;;;;;;2.50;2.50;;;;;10.67;67.77;100062.50;4993804;28;10799;-67
2023/03/25 10:14:20;;;;;;;;;3.00;3.00;;;;;10.77;67.57;100076.31;5009556;28;10038;-67
2023/03/25 10:17:12;;;;;;;;;4.00;2.50;;;;;10.80;66.77;100086.66;5005007;28;10105;-68
2023/03/25 10:20:13;;;;;;;;;4.50;1.50;;;;;10.72;66.57;100078.03;4991044;28;10808;-67
2023/03/25 10:22:51;;;;;;;;;1.75;1.00;;;;;10.59;67.10;100087.78;5006729;28;9940;-68
2023/03/25 10:25:23;;;;;;;;;0.25;0.25;;;;;10.64;66.64;100079.09;5013288;28;10863;-68
2023/03/25 10:27:51;;;;;;;;;4.25;2.75;;;;;10.62;66.74;100090.06;5009154;28;9783;-68
2023/03/25 10:30:21;;;;;;;;;4.25;1.00;;;;;10.72;66.73;100094.16;4994551;28;10234;-68
2023/03/25 10:33:01;;;;;;;;;1.75;1.75;;;;;10.85;66.65;100086.03;5012677;28;10045;-68
2023/03/25 10:35:30;;;;;;;;;3.50;1.75;;;;;11.03;66.45;100096.09;5013917;28;9848;-67
2023/03/25 10:38:17;;;;;;;;;1.75;1.75;;;;;11.22;65.63;100091.63;5013465;28;9874;-68
2023/03/25 10:40:49;;;;;;;;;3.75;2.00;;;;;11.17;65.17;100103.06;5013022;28;9861;-67
2023/03/25 10:43:30;;;;;;;;;3.50;3.50;;;;;11.03;65.05;100091.53;5014077;28;9875;-68
2023/03/25 10:46:16;;;;;;;;;3.00;2.00;;;;;11.15;64.82;100107.84;5013347;28;9762;-66
2023/03/25 10:48:44;;;;;;;;;8.25;4.50;;;;;11.12;64.46;100100.19;4993264;28;9900;-68
2023/03/25 10:51:15;;;;;;;;;3.50;1.00;;;;;11.12;64.80;100113.66;4995507;28;10056;-68
2023/03/25 10:53:47;;;;;;;;;4.50;1.75;;;;;11.07;64.96;100100.03;5013371;28;9916;-68
2023/03/25 10:56:20;;;;;;;;;2.50;2.00;;;;;11.06;65.25;100112.66;5013369;28;9772;-68
2023/03/25 10:58:52;;;;;;;;;2.50;2.00;;;;;11.16;64.83;100090.63;5013793;28;9906;-68
2023/03/25 11:01:26;;;;;;;;;2.00;1.75;;;;;11.20;64.90;100115.28;5013579;28;9851;-68
2023/03/25 11:03:53;;;;;;;;;5.50;4.00;;;;;11.02;64.85;100092.59;5013127;28;9883;-68
2023/03/25 11:06:25;;;;;;;;;1.75;1.50;;;;;11.05;64.62;100118.25;5012802;28;9895;-68
2023/03/25 11:08:58;;;;;;;;;0.75;0.75;;;;;11.20;64.69;100107.19;5012245;28;9801;-67
2023/03/25 11:11:32;;;;;;;;;5.00;2.25;;;;;11.28;64.51;100104.25;5013118;28;9844;-68
2023/03/25 11:14:00;;;;;;;;;2.00;2.00;;;;;11.36;64.39;100102.09;5012832;28;9946;-68
2023/03/25 11:16:39;;;;;;;;;2.50;0.75;;;;;11.33;64.38;100109.78;5012452;28;9994;-68
2023/03/25 11:19:05;;;;;;;;;3.25;1.75;;;;;11.32;64.16;100083.91;5013214;28;9693;-68
2023/03/25 11:21:35;;;;;;;;;5.75;5.00;;;;;11.46;64.08;100100.78;5012590;28;9690;-66
2023/03/25 11:24:05;;;;;;;;;2.00;1.00;;;;;11.57;64.08;100100.09;5012770;28;9913;-68
2023/03/25 11:26:41;;;;;;;;;1.00;1.00;;;;;11.62;63.93;100109.16;5012788;28;9824;-68
2023/03/25 11:29:19;;;;;;;;;2.00;2.00;;;;;11.46;63.77;100098.09;5011974;28;9544;-70
2023/03/25 11:32:04;;;;;;;;;2.50;1.00;;;;;11.39;64.09;100117.84;5011400;28;9668;-68
2023/03/25 11:34:32;;;;;;;;;2.00;1.00;;;;;11.29;63.80;100119.34;5012430;28;9616;-68
2023/03/25 11:37:12;;;;;;;;;2.25;1.00;;;;;11.22;63.75;100132.88;5012625;28;9625;-66
2023/03/25 11:39:41;;;;;;;;;1.00;1.00;;;;;11.29;63.86;100132.81;5012999;28;9859;-66
2023/03/25 11:42:14;;;;;;;;;4.00;1.00;;;;;11.37;63.94;100127.19;5010764;28;9629;-66
2023/03/25 11:44:42;;;;;;;;;2.50;2.00;;;;;11.28;63.79;100126.63;5012227;28;9663;-67
2023/03/25 11:47:10;;;;;;;;;1.25;1.00;;;;;11.29;64.05;100130.97;4994666;28;9816;-68
2023/03/25 11:49:40;;;;;;;;;1.00;1.00;;;;;11.23;63.67;100129.13;5012583;28;9849;-69
2023/03/25 11:52:14;;;;;;;;;2.25;1.25;;;;;11.14;64.18;100143.91;5012081;28;10295;-68
2023/03/25 11:54:41;;;;;;;;;2.75;1.75;;;;;11.13;64.19;100139.53;5011940;28;9724;-69
2023/03/25 11:57:19;;;;;;;;;3.00;1.75;;;;;11.10;64.38;100146.19;5011987;28;9527;-67